Mount Ulla, North Carolina
Current Conditions -  °F | °C
As of 1:15 PM on Monday 26 Jan 2015 (Local Time) from KRUQ Reporting Station
Overcast Overcast  
Wind Chill: 43°   Ceiling: 4900
Heat Index: 46°   Visibility: 10mi
Dew Point: 38°   Wind: 6mph
Humidity: 73%   Direction: 330°NNW
Pressure: 29.62"   Gusts: NA
Location:  35.66°N, 80.73°W
Report Text: KRUQ 261815Z AUTO 33005KT 10SM OVC049 08/03 A2962 RMK AO2 T00770031
Loading
Personal Weather Stations






























Interactive Weather Map New forecast layout! Learn more

10-Day Weather Forecast

Advertisements
Track Severe Weather on mobile